sensor_id;sensor_type;location;lat;lon;timestamp;temperature;humidity
67192;HTU21D;54120;53.504;49.426;2023-04-03T00:01:41;5.71;68.90
67192;HTU21D;54120;53.504;49.426;2023-04-03T00:04:07;5.83;68.31
67192;HTU21D;54120;53.504;49.426;2023-04-03T00:06:33;5.78;68.46
67192;HTU21D;54120;53.504;49.426;2023-04-03T00:09:00;5.70;68.78
67192;HTU21D;54120;53.504;49.426;2023-04-03T00:11:26;5.47;69.83
67192;HTU21D;54120;53.504;49.426;2023-04-03T00:13:52;5.39;69.84
67192;HTU21D;54120;53.504;49.426;2023-04-03T00:16:18;5.50;69.46
67192;HTU21D;54120;53.504;49.426;2023-04-03T00:18:44;5.49;69.45
67192;HTU21D;54120;53.504;49.426;2023-04-03T00:21:12;5.46;69.53
67192;HTU21D;54120;53.504;49.426;2023-04-03T00:23:38;5.27;70.10
67192;HTU21D;54120;53.504;49.426;2023-04-03T00:26:06;5.22;70.52
67192;HTU21D;54120;53.504;49.426;2023-04-03T00:28:32;5.31;70.27
67192;HTU21D;54120;53.504;49.426;2023-04-03T00:30:58;5.27;70.30
67192;HTU21D;54120;53.504;49.426;2023-04-03T00:33:24;5.34;70.15
67192;HTU21D;54120;53.504;49.426;2023-04-03T00:35:51;5.47;69.49
67192;HTU21D;54120;53.504;49.426;2023-04-03T00:38:17;5.49;69.25
67192;HTU21D;54120;53.504;49.426;2023-04-03T00:40:46;5.55;68.79
67192;HTU21D;54120;53.504;49.426;2023-04-03T00:43:21;5.56;68.63
67192;HTU21D;54120;53.504;49.426;2023-04-03T00:45:50;5.57;68.44
67192;HTU21D;54120;53.504;49.426;2023-04-03T00:48:29;5.51;68.58
67192;HTU21D;54120;53.504;49.426;2023-04-03T00:50:57;5.55;68.33
67192;HTU21D;54120;53.504;49.426;2023-04-03T00:53:29;5.62;68.19
67192;HTU21D;54120;53.504;49.426;2023-04-03T00:55:58;5.68;67.67
67192;HTU21D;54120;53.504;49.426;2023-04-03T00:58:39;5.66;67.73
67192;HTU21D;54120;53.504;49.426;2023-04-03T01:01:11;5.60;68.01
67192;HTU21D;54120;53.504;49.426;2023-04-03T01:03:38;5.51;68.22
67192;HTU21D;54120;53.504;49.426;2023-04-03T01:06:05;5.38;68.82
67192;HTU21D;54120;53.504;49.426;2023-04-03T01:08:32;5.38;68.96
67192;HTU21D;54120;53.504;49.426;2023-04-03T01:10:58;5.30;69.07
67192;HTU21D;54120;53.504;49.426;2023-04-03T01:13:28;4.98;70.52
67192;HTU21D;54120;53.504;49.426;2023-04-03T01:15:54;4.89;70.97
67192;HTU21D;54120;53.504;49.426;2023-04-03T01:18:25;4.88;70.79
67192;HTU21D;54120;53.504;49.426;2023-04-03T01:23:36;4.80;71.47
67192;HTU21D;54120;53.504;49.426;2023-04-03T01:26:05;4.81;71.18
67192;HTU21D;54120;53.504;49.426;2023-04-03T01:28:34;4.76;71.49
67192;HTU21D;54120;53.504;49.426;2023-04-03T01:33:49;4.88;71.13
67192;HTU21D;54120;53.504;49.426;2023-04-03T01:36:28;4.81;71.27
67192;HTU21D;54120;53.504;49.426;2023-04-03T01:38:56;4.79;71.57
67192;HTU21D;54120;53.504;49.426;2023-04-03T01:41:22;4.78;71.45
67192;HTU21D;54120;53.504;49.426;2023-04-03T01:43:49;4.69;71.88
67192;HTU21D;54120;53.504;49.426;2023-04-03T01:46:16;4.57;72.36
67192;HTU21D;54120;53.504;49.426;2023-04-03T01:48:43;4.53;72.61
67192;HTU21D;54120;53.504;49.426;2023-04-03T01:51:09;4.50;72.66
67192;HTU21D;54120;53.504;49.426;2023-04-03T01:53:36;4.51;72.58
67192;HTU21D;54120;53.504;49.426;2023-04-03T01:56:02;4.46;72.73
67192;HTU21D;54120;53.504;49.426;2023-04-03T01:58:28;4.53;72.64
67192;HTU21D;54120;53.504;49.426;2023-04-03T02:00:54;4.67;71.92
67192;HTU21D;54120;53.504;49.426;2023-04-03T02:03:21;4.62;72.12
67192;HTU21D;54120;53.504;49.426;2023-04-03T02:05:48;4.72;71.71
67192;HTU21D;54120;53.504;49.426;2023-04-03T02:08:14;4.75;71.35
67192;HTU21D;54120;53.504;49.426;2023-04-03T02:10:40;4.81;71.28
67192;HTU21D;54120;53.504;49.426;2023-04-03T02:13:06;4.82;71.26
67192;HTU21D;54120;53.504;49.426;2023-04-03T02:15:32;4.81;71.19
67192;HTU21D;54120;53.504;49.426;2023-04-03T02:17:58;4.79;71.06
67192;HTU21D;54120;53.504;49.426;2023-04-03T02:20:24;4.75;71.48
67192;HTU21D;54120;53.504;49.426;2023-04-03T02:22:50;4.90;70.54
67192;HTU21D;54120;53.504;49.426;2023-04-03T02:25:16;4.92;70.71
67192;HTU21D;54120;53.504;49.426;2023-04-03T02:27:43;4.92;70.79
67192;HTU21D;54120;53.504;49.426;2023-04-03T02:30:09;5.02;70.44
67192;HTU21D;54120;53.504;49.426;2023-04-03T02:32:36;5.04;69.50
67192;HTU21D;54120;53.504;49.426;2023-04-03T02:35:02;5.02;70.30
67192;HTU21D;54120;53.504;49.426;2023-04-03T02:37:28;5.16;69.71
67192;HTU21D;54120;53.504;49.426;2023-04-03T02:39:56;5.23;69.28
67192;HTU21D;54120;53.504;49.426;2023-04-03T02:42:22;5.28;69.00
67192;HTU21D;54120;53.504;49.426;2023-04-03T02:44:48;5.36;68.67
67192;HTU21D;54120;53.504;49.426;2023-04-03T02:47:14;5.39;68.37
67192;HTU21D;54120;53.504;49.426;2023-04-03T02:49:40;5.49;67.78
67192;HTU21D;54120;53.504;49.426;2023-04-03T02:52:07;5.46;67.78
67192;HTU21D;54120;53.504;49.426;2023-04-03T02:54:33;5.56;67.30
67192;HTU21D;54120;53.504;49.426;2023-04-03T02:56:59;5.66;66.78
67192;HTU21D;54120;53.504;49.426;2023-04-03T02:59:26;5.75;66.36
67192;HTU21D;54120;53.504;49.426;2023-04-03T03:01:52;5.75;66.35
67192;HTU21D;54120;53.504;49.426;2023-04-03T03:04:18;5.77;66.07
67192;HTU21D;54120;53.504;49.426;2023-04-03T03:06:44;5.90;65.56
67192;HTU21D;54120;53.504;49.426;2023-04-03T03:09:10;6.06;64.76
67192;HTU21D;54120;53.504;49.426;2023-04-03T03:11:36;6.25;64.35
67192;HTU21D;54120;53.504;49.426;2023-04-03T03:14:02;6.45;63.40
67192;HTU21D;54120;53.504;49.426;2023-04-03T03:16:29;6.65;63.01
67192;HTU21D;54120;53.504;49.426;2023-04-03T03:18:55;7.14;61.72
67192;HTU21D;54120;53.504;49.426;2023-04-03T03:21:22;10.16;51.65
67192;HTU21D;54120;53.504;49.426;2023-04-03T03:23:48;12.01;45.53
67192;HTU21D;54120;53.504;49.426;2023-04-03T03:26:14;13.01;42.37
67192;HTU21D;54120;53.504;49.426;2023-04-03T03:28:40;13.49;41.70
67192;HTU21D;54120;53.504;49.426;2023-04-03T03:31:07;14.24;40.13
67192;HTU21D;54120;53.504;49.426;2023-04-03T03:33:33;14.32;38.55
67192;HTU21D;54120;53.504;49.426;2023-04-03T03:35:59;14.22;38.98
67192;HTU21D;54120;53.504;49.426;2023-04-03T03:38:26;13.71;39.97
67192;HTU21D;54120;53.504;49.426;2023-04-03T03:40:52;13.60;40.42
67192;HTU21D;54120;53.504;49.426;2023-04-03T03:43:18;14.89;37.75
67192;HTU21D;54120;53.504;49.426;2023-04-03T03:45:50;15.81;35.14
67192;HTU21D;54120;53.504;49.426;2023-04-03T03:48:16;16.06;34.44
67192;HTU21D;54120;53.504;49.426;2023-04-03T03:50:43;15.58;35.34
67192;HTU21D;54120;53.504;49.426;2023-04-03T03:53:09;15.17;36.12
67192;HTU21D;54120;53.504;49.426;2023-04-03T03:55:35;16.04;33.99
67192;HTU21D;54120;53.504;49.426;2023-04-03T03:58:02;16.07;33.90
67192;HTU21D;54120;53.504;49.426;2023-04-03T04:00:29;16.66;32.80
67192;HTU21D;54120;53.504;49.426;2023-04-03T04:02:56;16.75;32.62
67192;HTU21D;54120;53.504;49.426;2023-04-03T04:05:22;16.90;32.28
67192;HTU21D;54120;53.504;49.426;2023-04-03T04:07:48;16.72;32.35
67192;HTU21D;54120;53.504;49.426;2023-04-03T04:10:15;17.67;30.29
67192;HTU21D;54120;53.504;49.426;2023-04-03T04:12:41;18.07;29.21
67192;HTU21D;54120;53.504;49.426;2023-04-03T04:15:08;17.56;30.57
67192;HTU21D;54120;53.504;49.426;2023-04-03T04:17:34;17.51;30.35
67192;HTU21D;54120;53.504;49.426;2023-04-03T04:20:02;17.01;31.68
67192;HTU21D;54120;53.504;49.426;2023-04-03T04:22:28;18.55;28.72
67192;HTU21D;54120;53.504;49.426;2023-04-03T04:24:54;19.00;27.83
67192;HTU21D;54120;53.504;49.426;2023-04-03T04:27:20;19.83;26.38
67192;HTU21D;54120;53.504;49.426;2023-04-03T04:29:46;18.70;28.02
67192;HTU21D;54120;53.504;49.426;2023-04-03T04:32:12;18.11;28.71
67192;HTU21D;54120;53.504;49.426;2023-04-03T04:34:38;17.96;29.09
67192;HTU21D;54120;53.504;49.426;2023-04-03T04:37:05;18.51;27.91
67192;HTU21D;54120;53.504;49.426;2023-04-03T04:39:31;19.07;27.05
67192;HTU21D;54120;53.504;49.426;2023-04-03T04:41:57;18.96;27.19
67192;HTU21D;54120;53.504;49.426;2023-04-03T04:44:23;19.17;28.19
67192;HTU21D;54120;53.504;49.426;2023-04-03T04:46:49;18.43;27.84
67192;HTU21D;54120;53.504;49.426;2023-04-03T04:49:15;18.89;26.94
67192;HTU21D;54120;53.504;49.426;2023-04-03T04:51:41;18.94;27.24
67192;HTU21D;54120;53.504;49.426;2023-04-03T04:54:07;20.42;24.85
67192;HTU21D;54120;53.504;49.426;2023-04-03T04:56:33;19.67;25.13
67192;HTU21D;54120;53.504;49.426;2023-04-03T04:59:00;18.82;27.18
67192;HTU21D;54120;53.504;49.426;2023-04-03T05:01:26;18.89;27.12
67192;HTU21D;54120;53.504;49.426;2023-04-03T05:03:52;18.33;27.92
67192;HTU21D;54120;53.504;49.426;2023-04-03T05:06:19;19.06;26.74
67192;HTU21D;54120;53.504;49.426;2023-04-03T05:08:45;20.17;24.87
67192;HTU21D;54120;53.504;49.426;2023-04-03T05:11:11;21.54;22.66
67192;HTU21D;54120;53.504;49.426;2023-04-03T05:13:37;21.24;22.34
67192;HTU21D;54120;53.504;49.426;2023-04-03T05:16:03;21.10;22.93
67192;HTU21D;54120;53.504;49.426;2023-04-03T05:18:29;21.02;22.98
67192;HTU21D;54120;53.504;49.426;2023-04-03T05:20:55;21.13;23.06
67192;HTU21D;54120;53.504;49.426;2023-04-03T05:23:21;21.05;23.17
67192;HTU21D;54120;53.504;49.426;2023-04-03T05:25:47;21.47;23.11
67192;HTU21D;54120;53.504;49.426;2023-04-03T05:28:14;21.27;23.30
67192;HTU21D;54120;53.504;49.426;2023-04-03T05:30:40;20.66;23.60
67192;HTU21D;54120;53.504;49.426;2023-04-03T05:33:06;19.87;24.82
67192;HTU21D;54120;53.504;49.426;2023-04-03T05:35:32;20.59;23.78
67192;HTU21D;54120;53.504;49.426;2023-04-03T05:37:58;20.32;24.17
67192;HTU21D;54120;53.504;49.426;2023-04-03T05:40:24;20.73;23.63
67192;HTU21D;54120;53.504;49.426;2023-04-03T05:42:51;20.14;24.11
67192;HTU21D;54120;53.504;49.426;2023-04-03T05:45:19;19.45;25.11
67192;HTU21D;54120;53.504;49.426;2023-04-03T05:47:45;19.85;24.80
67192;HTU21D;54120;53.504;49.426;2023-04-03T05:50:11;19.36;25.59
67192;HTU21D;54120;53.504;49.426;2023-04-03T05:52:43;21.00;22.90
67192;HTU21D;54120;53.504;49.426;2023-04-03T05:55:10;22.02;22.00
67192;HTU21D;54120;53.504;49.426;2023-04-03T05:57:37;21.11;22.11
67192;HTU21D;54120;53.504;49.426;2023-04-03T06:00:05;18.95;25.53
67192;HTU21D;54120;53.504;49.426;2023-04-03T06:02:32;18.59;26.99
67192;HTU21D;54120;53.504;49.426;2023-04-03T06:04:58;18.85;26.55
67192;HTU21D;54120;53.504;49.426;2023-04-03T06:07:25;19.20;26.12
67192;HTU21D;54120;53.504;49.426;2023-04-03T06:09:55;19.80;25.28
67192;HTU21D;54120;53.504;49.426;2023-04-03T06:12:22;21.16;22.81
67192;HTU21D;54120;53.504;49.426;2023-04-03T06:14:48;21.77;21.65
67192;HTU21D;54120;53.504;49.426;2023-04-03T06:17:15;21.97;21.47
67192;HTU21D;54120;53.504;49.426;2023-04-03T06:19:44;22.24;21.24
67192;HTU21D;54120;53.504;49.426;2023-04-03T06:22:10;22.40;20.66
67192;HTU21D;54120;53.504;49.426;2023-04-03T06:24:38;21.93;21.63
67192;HTU21D;54120;53.504;49.426;2023-04-03T06:27:04;22.93;19.78
67192;HTU21D;54120;53.504;49.426;2023-04-03T06:29:31;22.51;19.99
67192;HTU21D;54120;53.504;49.426;2023-04-03T06:31:57;22.43;20.48
67192;HTU21D;54120;53.504;49.426;2023-04-03T06:34:23;23.16;19.28
67192;HTU21D;54120;53.504;49.426;2023-04-03T06:36:49;24.46;17.57
67192;HTU21D;54120;53.504;49.426;2023-04-03T06:39:19;24.31;17.24
67192;HTU21D;54120;53.504;49.426;2023-04-03T06:41:49;23.61;19.49
67192;HTU21D;54120;53.504;49.426;2023-04-03T06:44:16;22.95;20.08
67192;HTU21D;54120;53.504;49.426;2023-04-03T06:46:43;23.37;18.88
67192;HTU21D;54120;53.504;49.426;2023-04-03T06:49:09;23.85;17.24
67192;HTU21D;54120;53.504;49.426;2023-04-03T06:51:36;24.11;16.90
67192;HTU21D;54120;53.504;49.426;2023-04-03T06:54:04;24.26;15.90
67192;HTU21D;54120;53.504;49.426;2023-04-03T06:56:31;25.00;16.00
67192;HTU21D;54120;53.504;49.426;2023-04-03T06:58:58;25.78;15.91
67192;HTU21D;54120;53.504;49.426;2023-04-03T07:01:28;24.70;15.74
67192;HTU21D;54120;53.504;49.426;2023-04-03T07:03:54;23.13;19.13
67192;HTU21D;54120;53.504;49.426;2023-04-03T07:06:21;22.24;19.54
67192;HTU21D;54120;53.504;49.426;2023-04-03T07:08:47;21.83;20.53
67192;HTU21D;54120;53.504;49.426;2023-04-03T07:11:16;23.00;18.65
67192;HTU21D;54120;53.504;49.426;2023-04-03T07:13:42;22.36;18.86
67192;HTU21D;54120;53.504;49.426;2023-04-03T07:16:09;22.28;19.24
67192;HTU21D;54120;53.504;49.426;2023-04-03T07:18:35;22.20;18.66
67192;HTU21D;54120;53.504;49.426;2023-04-03T07:21:01;22.08;17.60
67192;HTU21D;54120;53.504;49.426;2023-04-03T07:23:27;21.55;18.17
67192;HTU21D;54120;53.504;49.426;2023-04-03T07:25:55;21.66;17.31
67192;HTU21D;54120;53.504;49.426;2023-04-03T07:28:22;20.91;19.67
67192;HTU21D;54120;53.504;49.426;2023-04-03T07:30:52;20.84;18.96
67192;HTU21D;54120;53.504;49.426;2023-04-03T07:33:22;21.59;17.61
67192;HTU21D;54120;53.504;49.426;2023-04-03T07:35:49;23.43;15.86
67192;HTU21D;54120;53.504;49.426;2023-04-03T07:38:15;22.13;15.58
67192;HTU21D;54120;53.504;49.426;2023-04-03T07:40:46;21.27;16.24
67192;HTU21D;54120;53.504;49.426;2023-04-03T07:43:12;21.02;16.68
67192;HTU21D;54120;53.504;49.426;2023-04-03T07:45:38;19.00;19.40
67192;HTU21D;54120;53.504;49.426;2023-04-03T07:48:05;17.34;22.47
67192;HTU21D;54120;53.504;49.426;2023-04-03T07:50:31;16.58;23.36
67192;HTU21D;54120;53.504;49.426;2023-04-03T07:52:58;16.03;22.43
67192;HTU21D;54120;53.504;49.426;2023-04-03T07:55:25;15.84;23.41
67192;HTU21D;54120;53.504;49.426;2023-04-03T07:57:51;15.68;24.46
67192;HTU21D;54120;53.504;49.426;2023-04-03T08:00:18;15.93;23.08
67192;HTU21D;54120;53.504;49.426;2023-04-03T08:02:45;16.30;24.34
67192;HTU21D;54120;53.504;49.426;2023-04-03T08:05:20;16.26;22.05
67192;HTU21D;54120;53.504;49.426;2023-04-03T08:07:47;16.47;23.78
67192;HTU21D;54120;53.504;49.426;2023-04-03T08:10:14;16.37;23.65
67192;HTU21D;54120;53.504;49.426;2023-04-03T08:12:41;16.48;22.66
67192;HTU21D;54120;53.504;49.426;2023-04-03T08:15:08;16.51;22.57
67192;HTU21D;54120;53.504;49.426;2023-04-03T08:17:34;15.95;23.61
67192;HTU21D;54120;53.504;49.426;2023-04-03T08:20:01;16.22;22.59
67192;HTU21D;54120;53.504;49.426;2023-04-03T08:22:27;16.48;22.65
67192;HTU21D;54120;53.504;49.426;2023-04-03T08:24:53;16.17;22.88
67192;HTU21D;54120;53.504;49.426;2023-04-03T08:27:19;15.70;23.56
67192;HTU21D;54120;53.504;49.426;2023-04-03T08:29:45;15.77;23.83
67192;HTU21D;54120;53.504;49.426;2023-04-03T08:32:11;15.69;22.79
67192;HTU21D;54120;53.504;49.426;2023-04-03T08:34:37;15.88;24.37
67192;HTU21D;54120;53.504;49.426;2023-04-03T08:37:05;16.12;24.36
67192;HTU21D;54120;53.504;49.426;2023-04-03T08:39:31;16.41;23.56
67192;HTU21D;54120;53.504;49.426;2023-04-03T08:42:00;16.17;24.11
67192;HTU21D;54120;53.504;49.426;2023-04-03T08:44:46;15.93;23.82
67192;HTU21D;54120;53.504;49.426;2023-04-03T08:50:00;16.47;22.17
67192;HTU21D;54120;53.504;49.426;2023-04-03T08:52:53;16.44;21.70
67192;HTU21D;54120;53.504;49.426;2023-04-03T08:58:05;16.48;21.37
67192;HTU21D;54120;53.504;49.426;2023-04-03T09:00:53;16.44;21.20
67192;HTU21D;54120;53.504;49.426;2023-04-03T09:03:22;16.21;20.77
67192;HTU21D;54120;53.504;49.426;2023-04-03T09:08:42;16.35;22.14
67192;HTU21D;54120;53.504;49.426;2023-04-03T09:11:16;16.76;20.54
67192;HTU21D;54120;53.504;49.426;2023-04-03T09:21:39;16.12;22.02
67192;HTU21D;54120;53.504;49.426;2023-04-03T09:24:09;16.42;21.07
67192;HTU21D;54120;53.504;49.426;2023-04-03T09:27:06;16.84;21.02
67192;HTU21D;54120;53.504;49.426;2023-04-03T09:29:44;16.66;19.81
67192;HTU21D;54120;53.504;49.426;2023-04-03T09:32:32;16.79;19.54
67192;HTU21D;54120;53.504;49.426;2023-04-03T09:35:04;16.77;18.18
67192;HTU21D;54120;53.504;49.426;2023-04-03T09:37:45;16.64;18.63
67192;HTU21D;54120;53.504;49.426;2023-04-03T09:40:35;16.61;16.87
67192;HTU21D;54120;53.504;49.426;2023-04-03T09:43:25;16.70;17.83
67192;HTU21D;54120;53.504;49.426;2023-04-03T09:45:52;16.80;17.22
67192;HTU21D;54120;53.504;49.426;2023-04-03T09:48:21;16.89;16.54
67192;HTU21D;54120;53.504;49.426;2023-04-03T09:53:34;16.90;16.90
67192;HTU21D;54120;53.504;49.426;2023-04-03T09:56:25;17.02;17.80
67192;HTU21D;54120;53.504;49.426;2023-04-03T10:01:35;16.88;19.10
67192;HTU21D;54120;53.504;49.426;2023-04-03T10:04:20;17.01;18.73
67192;HTU21D;54120;53.504;49.426;2023-04-03T10:06:52;17.16;18.07
67192;HTU21D;54120;53.504;49.426;2023-04-03T10:09:27;17.10;17.21
67192;HTU21D;54120;53.504;49.426;2023-04-03T10:12:04;17.25;16.04
67192;HTU21D;54120;53.504;49.426;2023-04-03T10:14:35;17.22;16.53
67192;HTU21D;54120;53.504;49.426;2023-04-03T10:19:45;17.38;15.49
67192;HTU21D;54120;53.504;49.426;2023-04-03T10:25:30;17.20;17.34
67192;HTU21D;54120;53.504;49.426;2023-04-03T10:42:03;17.50;18.80
67192;HTU21D;54120;53.504;49.426;2023-04-03T10:47:27;16.92;21.72
67192;HTU21D;54120;53.504;49.426;2023-04-03T10:53:04;17.16;20.44
67192;HTU21D;54120;53.504;49.426;2023-04-03T10:55:46;17.23;20.76
67192;HTU21D;54120;53.504;49.426;2023-04-03T11:00:54;17.10;21.47
67192;HTU21D;54120;53.504;49.426;2023-04-03T11:05:59;16.92;21.76
67192;HTU21D;54120;53.504;49.426;2023-04-03T11:08:28;16.86;21.92
67192;HTU21D;54120;53.504;49.426;2023-04-03T11:11:06;16.66;22.05
67192;HTU21D;54120;53.504;49.426;2023-04-03T11:13:40;16.75;22.56
67192;HTU21D;54120;53.504;49.426;2023-04-03T11:16:09;16.63;22.90
67192;HTU21D;54120;53.504;49.426;2023-04-03T11:21:11;16.98;23.22
67192;HTU21D;54120;53.504;49.426;2023-04-03T11:23:40;17.25;22.49
67192;HTU21D;54120;53.504;49.426;2023-04-03T11:26:13;17.47;23.72
67192;HTU21D;54120;53.504;49.426;2023-04-03T11:28:40;17.47;22.51
67192;HTU21D;54120;53.504;49.426;2023-04-03T11:31:33;17.22;22.57
67192;HTU21D;54120;53.504;49.426;2023-04-03T11:36:44;17.09;23.55
67192;HTU21D;54120;53.504;49.426;2023-04-03T11:39:26;17.10;22.76
67192;HTU21D;54120;53.504;49.426;2023-04-03T11:41:53;17.02;22.98
67192;HTU21D;54120;53.504;49.426;2023-04-03T11:44:37;16.94;23.40
67192;HTU21D;54120;53.504;49.426;2023-04-03T11:47:05;17.18;23.90
67192;HTU21D;54120;53.504;49.426;2023-04-03T11:49:53;17.32;22.50
67192;HTU21D;54120;53.504;49.426;2023-04-03T12:16:22;16.86;24.53
67192;HTU21D;54120;53.504;49.426;2023-04-03T12:21:16;17.28;23.43
67192;HTU21D;54120;53.504;49.426;2023-04-03T12:26:36;17.46;23.74
67192;HTU21D;54120;53.504;49.426;2023-04-03T12:45:51;16.85;23.82
67192;HTU21D;54120;53.504;49.426;2023-04-03T12:48:22;17.03;23.59
67192;HTU21D;54120;53.504;49.426;2023-04-03T12:50:50;17.01;23.27
67192;HTU21D;54120;53.504;49.426;2023-04-03T12:53:20;17.05;23.43
67192;HTU21D;54120;53.504;49.426;2023-04-03T12:55:54;17.30;24.46
67192;HTU21D;54120;53.504;49.426;2023-04-03T12:58:26;17.37;22.97
67192;HTU21D;54120;53.504;49.426;2023-04-03T13:01:16;17.10;23.15
67192;HTU21D;54120;53.504;49.426;2023-04-03T13:03:45;17.02;23.31
67192;HTU21D;54120;53.504;49.426;2023-04-03T13:06:32;17.11;22.63
67192;HTU21D;54120;53.504;49.426;2023-04-03T13:09:00;17.05;23.37
67192;HTU21D;54120;53.504;49.426;2023-04-03T13:11:30;17.04;23.29
67192;HTU21D;54120;53.504;49.426;2023-04-03T13:14:15;16.77;24.40
67192;HTU21D;54120;53.504;49.426;2023-04-03T13:16:41;16.64;24.40
67192;HTU21D;54120;53.504;49.426;2023-04-03T13:19:17;16.62;25.11
67192;HTU21D;54120;53.504;49.426;2023-04-03T13:21:43;16.52;24.56
67192;HTU21D;54120;53.504;49.426;2023-04-03T13:24:11;16.48;24.73
67192;HTU21D;54120;53.504;49.426;2023-04-03T13:26:37;16.44;24.98
67192;HTU21D;54120;53.504;49.426;2023-04-03T13:29:26;16.39;24.81
67192;HTU21D;54120;53.504;49.426;2023-04-03T13:31:54;16.34;24.98
67192;HTU21D;54120;53.504;49.426;2023-04-03T13:34:23;16.41;24.29
67192;HTU21D;54120;53.504;49.426;2023-04-03T13:39:40;16.45;24.01
67192;HTU21D;54120;53.504;49.426;2023-04-03T13:42:30;16.50;24.19
67192;HTU21D;54120;53.504;49.426;2023-04-03T13:45:18;16.42;24.46
67192;HTU21D;54120;53.504;49.426;2023-04-03T13:47:47;16.31;24.43
67192;HTU21D;54120;53.504;49.426;2023-04-03T13:50:18;16.27;24.43
67192;HTU21D;54120;53.504;49.426;2023-04-03T13:53:00;16.26;24.27
67192;HTU21D;54120;53.504;49.426;2023-04-03T13:58:00;16.30;24.40
67192;HTU21D;54120;53.504;49.426;2023-04-03T14:00:51;16.28;24.21
67192;HTU21D;54120;53.504;49.426;2023-04-03T14:03:39;16.30;24.17
67192;HTU21D;54120;53.504;49.426;2023-04-03T14:06:08;16.29;24.28
67192;HTU21D;54120;53.504;49.426;2023-04-03T14:08:35;16.24;24.13
67192;HTU21D;54120;53.504;49.426;2023-04-03T14:11:02;16.15;24.50
67192;HTU21D;54120;53.504;49.426;2023-04-03T14:13:30;16.06;24.64
67192;HTU21D;54120;53.504;49.426;2023-04-03T14:15:56;15.96;24.88
67192;HTU21D;54120;53.504;49.426;2023-04-03T14:18:22;15.87;24.75
67192;HTU21D;54120;53.504;49.426;2023-04-03T14:20:49;15.80;25.03
67192;HTU21D;54120;53.504;49.426;2023-04-03T14:23:15;15.75;24.98
67192;HTU21D;54120;53.504;49.426;2023-04-03T14:25:42;15.69;24.75
67192;HTU21D;54120;53.504;49.426;2023-04-03T14:28:18;15.74;25.17
67192;HTU21D;54120;53.504;49.426;2023-04-03T14:30:45;15.70;25.33
67192;HTU21D;54120;53.504;49.426;2023-04-03T14:33:16;15.67;25.70
67192;HTU21D;54120;53.504;49.426;2023-04-03T14:35:42;15.63;26.12
67192;HTU21D;54120;53.504;49.426;2023-04-03T14:38:25;15.60;25.59
67192;HTU21D;54120;53.504;49.426;2023-04-03T14:40:52;15.48;26.01
67192;HTU21D;54120;53.504;49.426;2023-04-03T14:43:19;15.42;26.07
67192;HTU21D;54120;53.504;49.426;2023-04-03T14:45:47;15.28;26.35
67192;HTU21D;54120;53.504;49.426;2023-04-03T14:48:25;15.24;26.69
67192;HTU21D;54120;53.504;49.426;2023-04-03T14:50:52;15.26;27.00
67192;HTU21D;54120;53.504;49.426;2023-04-03T14:53:20;15.18;26.38
67192;HTU21D;54120;53.504;49.426;2023-04-03T14:55:51;15.09;26.24
67192;HTU21D;54120;53.504;49.426;2023-04-03T14:58:20;14.94;26.75
67192;HTU21D;54120;53.504;49.426;2023-04-03T15:00:46;14.73;27.25
67192;HTU21D;54120;53.504;49.426;2023-04-03T15:03:15;14.64;27.33
67192;HTU21D;54120;53.504;49.426;2023-04-03T15:05:44;14.51;27.61
67192;HTU21D;54120;53.504;49.426;2023-04-03T15:08:19;14.48;28.23
67192;HTU21D;54120;53.504;49.426;2023-04-03T15:10:47;14.40;27.35
67192;HTU21D;54120;53.504;49.426;2023-04-03T15:13:14;14.25;28.10
67192;HTU21D;54120;53.504;49.426;2023-04-03T15:15:41;14.12;27.80
67192;HTU21D;54120;53.504;49.426;2023-04-03T15:18:12;14.03;27.74
67192;HTU21D;54120;53.504;49.426;2023-04-03T15:20:40;14.10;27.87
67192;HTU21D;54120;53.504;49.426;2023-04-03T15:23:06;14.01;28.40
67192;HTU21D;54120;53.504;49.426;2023-04-03T15:25:33;13.99;27.62
67192;HTU21D;54120;53.504;49.426;2023-04-03T15:28:00;13.86;27.65
67192;HTU21D;54120;53.504;49.426;2023-04-03T15:30:26;13.78;28.15
67192;HTU21D;54120;53.504;49.426;2023-04-03T15:32:53;13.81;28.09
67192;HTU21D;54120;53.504;49.426;2023-04-03T15:35:19;13.69;28.46
67192;HTU21D;54120;53.504;49.426;2023-04-03T15:37:46;13.58;28.83
67192;HTU21D;54120;53.504;49.426;2023-04-03T15:40:14;13.41;29.02
67192;HTU21D;54120;53.504;49.426;2023-04-03T15:42:40;13.32;29.22
67192;HTU21D;54120;53.504;49.426;2023-04-03T15:45:07;13.21;29.60
67192;HTU21D;54120;53.504;49.426;2023-04-03T15:47:34;13.16;29.56
67192;HTU21D;54120;53.504;49.426;2023-04-03T15:50:01;13.06;30.03
67192;HTU21D;54120;53.504;49.426;2023-04-03T15:52:27;13.04;30.25
67192;HTU21D;54120;53.504;49.426;2023-04-03T15:54:55;13.09;31.09
67192;HTU21D;54120;53.504;49.426;2023-04-03T15:57:21;13.18;31.03
67192;HTU21D;54120;53.504;49.426;2023-04-03T15:59:52;13.11;31.35
67192;HTU21D;54120;53.504;49.426;2023-04-03T16:02:18;12.96;32.14
67192;HTU21D;54120;53.504;49.426;2023-04-03T16:04:45;12.88;32.52
67192;HTU21D;54120;53.504;49.426;2023-04-03T16:07:12;12.85;32.53
67192;HTU21D;54120;53.504;49.426;2023-04-03T16:09:39;12.79;32.89
67192;HTU21D;54120;53.504;49.426;2023-04-03T16:12:05;12.77;32.94
67192;HTU21D;54120;53.504;49.426;2023-04-03T16:14:31;12.67;33.71
67192;HTU21D;54120;53.504;49.426;2023-04-03T16:16:58;12.63;33.79
67192;HTU21D;54120;53.504;49.426;2023-04-03T16:19:26;12.49;34.04
67192;HTU21D;54120;53.504;49.426;2023-04-03T16:21:56;12.41;34.47
67192;HTU21D;54120;53.504;49.426;2023-04-03T16:24:22;12.45;34.51
67192;HTU21D;54120;53.504;49.426;2023-04-03T16:26:49;12.52;34.63
67192;HTU21D;54120;53.504;49.426;2023-04-03T16:29:15;12.41;34.76
67192;HTU21D;54120;53.504;49.426;2023-04-03T16:31:42;12.22;35.00
67192;HTU21D;54120;53.504;49.426;2023-04-03T16:34:08;12.22;35.22
67192;HTU21D;54120;53.504;49.426;2023-04-03T16:36:35;12.15;35.40
67192;HTU21D;54120;53.504;49.426;2023-04-03T16:39:03;12.11;35.56
67192;HTU21D;54120;53.504;49.426;2023-04-03T16:41:30;11.88;36.24
67192;HTU21D;54120;53.504;49.426;2023-04-03T16:43:56;11.78;36.28
67192;HTU21D;54120;53.504;49.426;2023-04-03T16:46:24;11.81;36.50
67192;HTU21D;54120;53.504;49.426;2023-04-03T16:48:51;11.75;36.63
67192;HTU21D;54120;53.504;49.426;2023-04-03T16:51:17;11.72;37.05
67192;HTU21D;54120;53.504;49.426;2023-04-03T16:53:44;11.81;37.00
67192;HTU21D;54120;53.504;49.426;2023-04-03T16:56:10;11.74;37.11
67192;HTU21D;54120;53.504;49.426;2023-04-03T16:58:37;11.73;37.01
67192;HTU21D;54120;53.504;49.426;2023-04-03T17:01:15;11.77;36.98
67192;HTU21D;54120;53.504;49.426;2023-04-03T17:03:42;11.69;37.09
67192;HTU21D;54120;53.504;49.426;2023-04-03T17:06:11;11.49;37.50
67192;HTU21D;54120;53.504;49.426;2023-04-03T17:08:43;11.37;37.85
67192;HTU21D;54120;53.504;49.426;2023-04-03T17:11:10;11.28;38.11